Time;durP1;ratioP1;P1;durP2;ratioP2;P2;SDS_P1;SDS_P2;PMS_P1;PMS_P2;Temp;Humidity;BMP_temperature;BMP_pressure;BME280_temperature;BME280_humidity;BME280_pressure;Samples;Min_cycle;Max_cycle;Signal;HPM_P1;HPM_P2
2022/12/20 00:01:14;;;;;;;13.60;12.40;;;;;;;;;;5015995;28;20026;-58
2022/12/20 00:03:40;;;;;;;13.65;12.45;;;;;;;;;;5014279;28;20029;-57
2022/12/20 00:06:06;;;;;;;13.52;12.48;;;;;;;;;;5015072;28;20544;-57
2022/12/20 00:08:33;;;;;;;14.77;13.60;;;;;;;;;;5014047;28;20574;-58
2022/12/20 00:11:00;;;;;;;14.43;13.43;;;;;;;;;;5011785;28;20117;-58
2022/12/20 00:13:26;;;;;;;12.77;11.88;;;;;;;;;;5013740;28;20483;-57
2022/12/20 00:16:06;;;;;;;13.45;12.45;;;;;;;;;;5012433;28;20064;-57
2022/12/20 00:18:32;;;;;;;14.43;13.15;;;;;;;;;;5014703;28;20034;-57
2022/12/20 00:20:58;;;;;;;13.77;12.88;;;;;;;;;;5014683;28;20107;-57
2022/12/20 00:23:24;;;;;;;14.27;12.90;;;;;;;;;;5015439;28;20037;-56
2022/12/20 00:25:49;;;;;;;15.20;13.80;;;;;;;;;;5013054;28;20046;-57
2022/12/20 00:28:15;;;;;;;16.38;14.73;;;;;;;;;;5011642;28;20037;-56
2022/12/20 00:30:40;;;;;;;15.45;14.35;;;;;;;;;;5020950;28;20214;-57
2022/12/20 00:33:05;;;;;;;16.08;14.73;;;;;;;;;;5013528;28;20087;-57
2022/12/20 00:35:31;;;;;;;13.55;12.60;;;;;;;;;;5017001;28;20087;-57
2022/12/20 00:37:56;;;;;;;14.98;13.85;;;;;;;;;;5012711;28;21293;-57
2022/12/20 00:40:21;;;;;;;14.10;12.75;;;;;;;;;;5014378;28;20534;-58
2022/12/20 00:42:46;;;;;;;14.15;13.10;;;;;;;;;;5012804;28;20108;-57
2022/12/20 00:45:12;;;;;;;15.65;14.48;;;;;;;;;;5014967;28;20089;-57
2022/12/20 00:47:37;;;;;;;14.55;13.55;;;;;;;;;;5013999;28;20038;-57
2022/12/20 00:50:03;;;;;;;14.57;13.35;;;;;;;;;;5015481;28;20071;-55
2022/12/20 00:52:29;;;;;;;13.43;12.43;;;;;;;;;;5012825;28;20232;-56
2022/12/20 00:54:54;;;;;;;15.13;13.57;;;;;;;;;;5014159;28;20038;-57
2022/12/20 00:57:19;;;;;;;14.38;13.27;;;;;;;;;;5011988;28;20041;-57
2022/12/20 00:59:45;;;;;;;14.45;13.45;;;;;;;;;;5014313;28;20044;-57
2022/12/20 01:02:10;;;;;;;14.45;13.32;;;;;;;;;;5013692;28;20043;-57
2022/12/20 01:04:35;;;;;;;14.30;13.25;;;;;;;;;;5011987;28;20018;-57
2022/12/20 01:07:01;;;;;;;12.90;12.10;;;;;;;;;;5012372;28;20037;-58
2022/12/20 01:09:27;;;;;;;14.85;13.77;;;;;;;;;;5016550;28;20025;-58
2022/12/20 01:11:52;;;;;;;14.40;13.25;;;;;;;;;;5014258;28;20103;-55
2022/12/20 01:14:17;;;;;;;12.55;11.70;;;;;;;;;;5013368;28;20037;-55
2022/12/20 01:16:45;;;;;;;16.70;15.40;;;;;;;;;;5014055;28;20029;-55
2022/12/20 01:19:13;;;;;;;14.35;13.32;;;;;;;;;;5012572;28;20026;-56
2022/12/20 01:21:43;;;;;;;14.10;12.57;;;;;;;;;;5014467;28;20033;-56
2022/12/20 01:24:13;;;;;;;15.00;13.63;;;;;;;;;;5012798;28;20096;-58
2022/12/20 01:26:38;;;;;;;15.38;14.27;;;;;;;;;;5016081;28;20053;-56
2022/12/20 01:29:04;;;;;;;16.80;15.18;;;;;;;;;;5014637;28;20068;-57
2022/12/20 01:31:29;;;;;;;14.98;13.85;;;;;;;;;;5013729;28;20032;-57
2022/12/20 01:33:55;;;;;;;14.23;13.18;;;;;;;;;;5014288;28;20104;-57
2022/12/20 01:36:24;;;;;;;15.80;14.68;;;;;;;;;;5015985;28;20037;-57
2022/12/20 01:38:50;;;;;;;17.75;16.17;;;;;;;;;;5013068;28;20062;-56
2022/12/20 01:41:18;;;;;;;13.20;12.25;;;;;;;;;;5013226;28;20380;-57
2022/12/20 01:43:50;;;;;;;15.88;14.57;;;;;;;;;;5015305;28;20066;-55
2022/12/20 01:46:17;;;;;;;14.52;13.40;;;;;;;;;;5015672;28;20115;-56
2022/12/20 01:48:48;;;;;;;12.13;11.32;;;;;;;;;;5012297;28;20025;-57
2022/12/20 01:51:13;;;;;;;15.20;14.10;;;;;;;;;;5016272;28;20048;-57
2022/12/20 01:53:39;;;;;;;13.65;12.40;;;;;;;;;;5017144;28;20030;-57
2022/12/20 01:56:07;;;;;;;14.30;13.30;;;;;;;;;;5014236;28;20852;-57
2022/12/20 01:58:34;;;;;;;15.45;14.15;;;;;;;;;;5015504;28;20072;-56
2022/12/20 02:00:59;;;;;;;16.20;15.05;;;;;;;;;;5012933;28;21121;-56
2022/12/20 02:03:26;;;;;;;13.95;12.77;;;;;;;;;;5013314;28;20030;-55
2022/12/20 02:05:51;;;;;;;16.00;14.60;;;;;;;;;;5013152;28;20077;-56
2022/12/20 02:08:19;;;;;;;15.07;13.80;;;;;;;;;;5012943;28;20162;-56
2022/12/20 02:11:08;;;;;;;15.02;13.63;;;;;;;;;;5012207;28;20034;-56
2022/12/20 02:13:43;;;;;;;14.45;13.30;;;;;;;;;;5010904;28;20030;-56
2022/12/20 02:16:13;;;;;;;13.73;12.73;;;;;;;;;;5013403;28;20194;-56
2022/12/20 02:18:58;;;;;;;14.75;13.77;;;;;;;;;;5013784;28;20739;-56
2022/12/20 02:21:48;;;;;;;15.25;14.15;;;;;;;;;;5013714;28;20030;-56
2022/12/20 02:24:26;;;;;;;13.52;12.52;;;;;;;;;;5014967;28;20112;-56
2022/12/20 02:27:21;;;;;;;13.25;12.20;;;;;;;;;;5013472;28;20359;-55
2022/12/20 02:30:25;;;;;;;13.98;12.98;;;;;;;;;;5013843;28;20132;-56
2022/12/20 02:33:07;;;;;;;14.90;13.60;;;;;;;;;;5009869;28;20476;-54
2022/12/20 02:35:35;;;;;;;14.13;13.13;;;;;;;;;;5014051;28;20368;-55
2022/12/20 02:38:22;;;;;;;13.90;12.98;;;;;;;;;;5012035;28;20484;-56
2022/12/20 02:40:52;;;;;;;14.80;13.80;;;;;;;;;;5011096;28;20029;-60
2022/12/20 02:46:04;;;;;;;13.82;12.63;;;;;;;;;;5018170;28;20375;-56
2022/12/20 02:48:32;;;;;;;14.13;13.07;;;;;;;;;;5013876;28;20029;-56
2022/12/20 02:50:59;;;;;;;14.80;13.85;;;;;;;;;;5016788;28;20373;-55
2022/12/20 02:53:25;;;;;;;14.07;13.07;;;;;;;;;;5015125;28;20053;-56
2022/12/20 02:55:56;;;;;;;14.20;13.15;;;;;;;;;;5019593;28;20053;-56
2022/12/20 02:58:37;;;;;;;13.27;12.27;;;;;;;;;;5015088;28;20125;-56
2022/12/20 03:01:09;;;;;;;14.00;13.02;;;;;;;;;;5018519;28;20312;-55
2022/12/20 03:03:35;;;;;;;17.40;15.90;;;;;;;;;;5015333;28;20045;-56
2022/12/20 03:06:01;;;;;;;15.25;13.95;;;;;;;;;;5012835;28;20116;-55
2022/12/20 03:08:26;;;;;;;15.57;14.43;;;;;;;;;;5015419;28;20104;-56
2022/12/20 03:10:53;;;;;;;14.10;13.10;;;;;;;;;;5015568;28;20046;-56
2022/12/20 03:13:19;;;;;;;14.98;13.77;;;;;;;;;;5015038;28;20131;-54
2022/12/20 03:15:44;;;;;;;15.82;14.50;;;;;;;;;;5018017;28;20535;-55
2022/12/20 03:18:10;;;;;;;13.35;12.45;;;;;;;;;;5014482;28;20605;-56
2022/12/20 03:20:35;;;;;;;14.55;13.55;;;;;;;;;;5016808;28;20505;-55
2022/12/20 03:23:01;;;;;;;13.15;12.25;;;;;;;;;;5014358;28;20060;-56
2022/12/20 03:25:27;;;;;;;15.55;14.30;;;;;;;;;;5015918;28;20044;-56
2022/12/20 03:27:52;;;;;;;14.73;13.55;;;;;;;;;;5014912;28;20103;-56
2022/12/20 03:30:18;;;;;;;13.38;12.38;;;;;;;;;;5016586;28;20038;-56
2022/12/20 03:32:43;;;;;;;15.15;13.95;;;;;;;;;;5017560;28;20475;-55
2022/12/20 03:35:09;;;;;;;14.32;13.23;;;;;;;;;;5019830;28;20394;-56
2022/12/20 03:37:34;;;;;;;13.68;12.77;;;;;;;;;;5014934;28;20482;-56
2022/12/20 03:40:00;;;;;;;14.20;13.18;;;;;;;;;;5014033;28;20462;-55
2022/12/20 03:42:25;;;;;;;14.50;13.38;;;;;;;;;;5015350;28;20034;-55
2022/12/20 03:44:51;;;;;;;15.23;14.13;;;;;;;;;;5016115;28;20044;-55
2022/12/20 03:47:16;;;;;;;13.95;12.95;;;;;;;;;;5015378;28;20034;-54
2022/12/20 03:49:42;;;;;;;13.85;12.80;;;;;;;;;;5015927;28;20025;-55
2022/12/20 03:52:10;;;;;;;12.98;12.07;;;;;;;;;;5015400;28;20042;-54
2022/12/20 03:54:36;;;;;;;14.82;13.73;;;;;;;;;;5014472;28;20034;-54
2022/12/20 03:57:01;;;;;;;14.82;13.80;;;;;;;;;;5011752;28;20037;-53
2022/12/20 03:59:27;;;;;;;13.95;12.93;;;;;;;;;;5012540;28;20033;-54
2022/12/20 04:01:52;;;;;;;13.23;12.23;;;;;;;;;;5018016;28;20064;-55
2022/12/20 04:04:17;;;;;;;15.45;14.27;;;;;;;;;;5019013;28;20046;-55
2022/12/20 04:06:43;;;;;;;14.63;13.25;;;;;;;;;;5014537;28;20095;-54
2022/12/20 04:09:08;;;;;;;13.13;12.23;;;;;;;;;;5012510;28;20041;-55
2022/12/20 04:11:33;;;;;;;14.32;13.32;;;;;;;;;;5011295;28;20678;-55
2022/12/20 04:13:59;;;;;;;22.90;14.10;;;;;;;;;;5012744;28;20443;-54
2022/12/20 04:16:27;;;;;;;15.15;14.02;;;;;;;;;;5014608;28;20236;-54
2022/12/20 04:18:53;;;;;;;13.70;12.65;;;;;;;;;;5013002;28;20301;-55
2022/12/20 04:21:24;;;;;;;14.45;12.35;;;;;;;;;;5016044;28;20526;-54
2022/12/20 04:23:50;;;;;;;13.68;12.75;;;;;;;;;;5012769;28;20056;-55
2022/12/20 04:26:15;;;;;;;14.95;13.75;;;;;;;;;;5012768;28;20127;-55
2022/12/20 04:28:40;;;;;;;13.98;12.98;;;;;;;;;;5014557;28;20025;-56
2022/12/20 04:31:06;;;;;;;12.82;11.88;;;;;;;;;;5012589;28;20022;-55
2022/12/20 04:33:33;;;;;;;12.88;11.95;;;;;;;;;;5014312;28;20041;-54
2022/12/20 04:35:58;;;;;;;12.93;11.77;;;;;;;;;;5012980;28;20156;-55
2022/12/20 04:38:24;;;;;;;12.68;11.77;;;;;;;;;;5012738;28;20064;-55
2022/12/20 04:40:50;;;;;;;13.25;12.10;;;;;;;;;;5012859;28;20107;-56
2022/12/20 04:43:16;;;;;;;13.95;12.80;;;;;;;;;;5016010;28;20092;-56
2022/12/20 04:45:43;;;;;;;13.85;12.55;;;;;;;;;;5015644;28;20033;-55
2022/12/20 04:48:09;;;;;;;14.52;13.32;;;;;;;;;;5013481;28;20460;-55
2022/12/20 04:50:34;;;;;;;14.63;13.55;;;;;;;;;;5012306;28;20037;-54
2022/12/20 04:55:43;;;;;;;13.68;12.65;;;;;;;;;;5012980;28;20047;-55
2022/12/20 04:58:09;;;;;;;13.68;12.68;;;;;;;;;;5012138;28;20029;-55
2022/12/20 05:00:34;;;;;;;13.52;12.52;;;;;;;;;;5014565;28;20258;-54
2022/12/20 05:03:00;;;;;;;15.13;13.68;;;;;;;;;;5016027;28;20042;-53
2022/12/20 05:05:26;;;;;;;15.50;14.13;;;;;;;;;;5015398;28;20036;-55
2022/12/20 05:07:52;;;;;;;15.32;14.23;;;;;;;;;;5012003;28;20034;-55
2022/12/20 05:10:17;;;;;;;14.02;12.95;;;;;;;;;;5013482;28;20038;-55
2022/12/20 05:12:43;;;;;;;13.55;12.45;;;;;;;;;;5013719;28;20106;-57
2022/12/20 05:15:09;;;;;;;13.98;13.05;;;;;;;;;;5012285;28;20034;-54
2022/12/20 05:17:35;;;;;;;13.57;12.52;;;;;;;;;;5016904;28;20133;-55
2022/12/20 05:20:00;;;;;;;15.00;14.00;;;;;;;;;;5012235;28;20105;-55
2022/12/20 05:27:55;;;;;;;13.15;12.20;;;;;;;;;;5011942;28;20258;-54
2022/12/20 05:30:21;;;;;;;13.98;13.02;;;;;;;;;;5013979;28;20087;-54
2022/12/20 05:32:46;;;;;;;12.70;11.80;;;;;;;;;;5013878;28;20030;-54
2022/12/20 05:35:12;;;;;;;13.35;12.45;;;;;;;;;;5009860;28;20112;-55
2022/12/20 05:37:37;;;;;;;14.65;13.27;;;;;;;;;;5012812;28;20038;-58
2022/12/20 05:40:03;;;;;;;13.38;12.48;;;;;;;;;;5012902;28;20034;-58
2022/12/20 05:42:29;;;;;;;14.30;13.20;;;;;;;;;;5010810;28;20038;-57
2022/12/20 05:44:54;;;;;;;15.57;14.10;;;;;;;;;;5011867;28;20748;-57
2022/12/20 05:47:20;;;;;;;14.45;13.05;;;;;;;;;;5013129;28;20029;-57
2022/12/20 05:49:45;;;;;;;13.60;12.70;;;;;;;;;;5015535;28;20359;-57
2022/12/20 05:52:10;;;;;;;13.50;12.60;;;;;;;;;;5013732;28;20475;-57
2022/12/20 05:54:36;;;;;;;15.85;12.77;;;;;;;;;;5014569;28;20036;-57
2022/12/20 05:57:01;;;;;;;15.35;14.25;;;;;;;;;;5012155;28;20045;-57
2022/12/20 05:59:26;;;;;;;13.73;12.75;;;;;;;;;;5011935;28;20478;-58
2022/12/20 06:01:52;;;;;;;15.38;14.27;;;;;;;;;;5010851;28;20037;-57
2022/12/20 06:04:17;;;;;;;13.20;12.30;;;;;;;;;;5012388;28;20037;-58
2022/12/20 06:06:43;;;;;;;13.38;12.48;;;;;;;;;;5014318;28;20061;-57
2022/12/20 06:09:08;;;;;;;15.23;13.80;;;;;;;;;;5012303;28;20034;-57
2022/12/20 06:11:33;;;;;;;15.68;14.07;;;;;;;;;;5011651;28;20026;-56
2022/12/20 06:13:59;;;;;;;15.73;12.85;;;;;;;;;;5014388;28;20451;-57
2022/12/20 06:16:24;;;;;;;15.77;14.52;;;;;;;;;;5013063;28;20038;-57
2022/12/20 06:18:50;;;;;;;15.30;13.98;;;;;;;;;;5013833;28;20056;-57
2022/12/20 06:21:15;;;;;;;15.38;14.20;;;;;;;;;;5015306;28;20462;-58
2022/12/20 06:23:41;;;;;;;14.77;13.77;;;;;;;;;;5019782;28;20053;-57
2022/12/20 06:26:08;;;;;;;13.15;12.25;;;;;;;;;;5015814;28;20554;-57
2022/12/20 06:28:34;;;;;;;14.05;12.95;;;;;;;;;;5013913;28;20068;-57
2022/12/20 06:30:59;;;;;;;14.10;13.10;;;;;;;;;;5012241;28;20887;-57
2022/12/20 06:33:25;;;;;;;13.68;12.55;;;;;;;;;;5014315;28;20040;-57
2022/12/20 06:35:50;;;;;;;13.75;12.65;;;;;;;;;;5013624;28;20071;-57
2022/12/20 06:38:16;;;;;;;13.18;12.27;;;;;;;;;;5015838;28;20430;-57
2022/12/20 06:40:42;;;;;;;13.85;12.82;;;;;;;;;;5016665;28;20164;-58
2022/12/20 06:43:07;;;;;;;16.25;15.02;;;;;;;;;;5017780;28;21000;-57
2022/12/20 06:45:33;;;;;;;17.27;15.85;;;;;;;;;;5017769;28;20048;-57
2022/12/20 06:47:58;;;;;;;16.95;15.52;;;;;;;;;;5015411;28;20426;-57
2022/12/20 06:50:24;;;;;;;15.25;13.88;;;;;;;;;;5016883;28;20057;-54
2022/12/20 06:52:49;;;;;;;12.60;11.70;;;;;;;;;;5012866;28;20045;-56
2022/12/20 06:55:14;;;;;;;15.32;13.85;;;;;;;;;;5007273;28;20029;-56
2022/12/20 06:57:40;;;;;;;14.75;13.55;;;;;;;;;;5013392;28;20041;-56
2022/12/20 07:00:07;;;;;;;13.65;12.65;;;;;;;;;;5016342;28;20037;-55
2022/12/20 07:02:32;;;;;;;17.20;15.88;;;;;;;;;;5015538;28;20091;-55
2022/12/20 07:04:58;;;;;;;16.83;15.45;;;;;;;;;;5017117;28;20037;-56
2022/12/20 07:07:23;;;;;;;15.65;14.30;;;;;;;;;;5014699;28;20053;-55
2022/12/20 07:09:49;;;;;;;14.13;13.10;;;;;;;;;;5014158;28;20038;-56
2022/12/20 07:12:14;;;;;;;12.88;11.90;;;;;;;;;;5016641;28;20033;-55
2022/12/20 07:14:39;;;;;;;16.67;15.15;;;;;;;;;;5014924;28;20105;-55
2022/12/20 07:17:06;;;;;;;13.20;12.20;;;;;;;;;;5015628;28;20041;-55
2022/12/20 07:19:32;;;;;;;17.48;14.13;;;;;;;;;;5013909;28;20049;-56
2022/12/20 07:21:57;;;;;;;17.17;15.60;;;;;;;;;;5015566;28;20132;-57
2022/12/20 07:24:23;;;;;;;16.52;14.85;;;;;;;;;;5015031;28;20112;-53
2022/12/20 07:26:48;;;;;;;17.95;16.40;;;;;;;;;;5015796;28;20052;-56
2022/12/20 07:29:14;;;;;;;17.70;16.05;;;;;;;;;;5013676;28;20059;-56
2022/12/20 07:31:39;;;;;;;16.77;15.38;;;;;;;;;;5017348;28;20041;-55
2022/12/20 07:34:04;;;;;;;13.05;12.15;;;;;;;;;;5015218;28;20038;-54
2022/12/20 07:36:30;;;;;;;14.20;12.70;;;;;;;;;;5015099;28;20034;-56
2022/12/20 07:38:56;;;;;;;15.32;14.15;;;;;;;;;;5014821;28;20041;-55
2022/12/20 07:41:22;;;;;;;13.63;12.65;;;;;;;;;;5019317;28;20432;-56
2022/12/20 07:43:48;;;;;;;13.23;12.25;;;;;;;;;;5020951;28;20456;-54
2022/12/20 07:46:14;;;;;;;13.27;12.35;;;;;;;;;;5016829;28;20038;-56
2022/12/20 07:48:40;;;;;;;13.20;12.23;;;;;;;;;;5019767;28;20040;-55
2022/12/20 07:51:15;;;;;;;12.68;11.85;;;;;;;;;;5019472;28;20042;-55
2022/12/20 07:53:45;;;;;;;13.30;12.35;;;;;;;;;;5016355;28;20069;-56
2022/12/20 07:56:12;;;;;;;12.93;12.02;;;;;;;;;;5014852;28;20047;-56
2022/12/20 07:58:40;;;;;;;13.27;12.32;;;;;;;;;;5014776;28;20037;-55
2022/12/20 08:01:09;;;;;;;13.95;12.95;;;;;;;;;;5016269;28;20104;-56
2022/12/20 08:03:38;;;;;;;11.90;11.10;;;;;;;;;;5016785;28;20083;-56
2022/12/20 08:06:06;;;;;;;13.93;12.70;;;;;;;;;;5014558;28;20853;-55
2022/12/20 08:08:33;;;;;;;15.25;13.90;;;;;;;;;;5014976;28;20037;-55
2022/12/20 08:10:59;;;;;;;15.52;14.23;;;;;;;;;;5012345;28;20037;-56
2022/12/20 08:13:24;;;;;;;13.40;12.50;;;;;;;;;;5015495;28;20247;-56
2022/12/20 08:15:50;;;;;;;14.60;13.60;;;;;;;;;;5012323;28;20044;-56
2022/12/20 08:18:15;;;;;;;14.55;13.55;;;;;;;;;;5012473;28;20033;-56
2022/12/20 08:20:41;;;;;;;15.10;13.77;;;;;;;;;;5015441;28;20112;-55
2022/12/20 08:23:06;;;;;;;14.25;13.25;;;;;;;;;;5012328;28;20036;-56
2022/12/20 08:25:34;;;;;;;13.18;12.27;;;;;;;;;;5014411;28;20439;-56
2022/12/20 08:28:01;;;;;;;12.98;12.02;;;;;;;;;;5013206;28;20235;-56
2022/12/20 08:30:27;;;;;;;13.35;12.35;;;;;;;;;;5011674;28;20037;-56
2022/12/20 08:32:53;;;;;;;14.73;13.75;;;;;;;;;;5017101;28;20142;-56
2022/12/20 08:35:18;;;;;;;13.88;12.77;;;;;;;;;;5012482;28;20064;-56
2022/12/20 08:37:43;;;;;;;14.25;13.02;;;;;;;;;;5010826;28;20580;-56
2022/12/20 08:40:09;;;;;;;14.00;13.00;;;;;;;;;;5011328;28;20180;-57
2022/12/20 08:42:35;;;;;;;15.80;14.40;;;;;;;;;;5017341;28;20152;-56
2022/12/20 08:45:00;;;;;;;13.40;12.50;;;;;;;;;;5011604;28;20025;-56
2022/12/20 08:47:28;;;;;;;14.50;13.07;;;;;;;;;;5009228;28;20037;-56
2022/12/20 08:49:54;;;;;;;14.65;13.65;;;;;;;;;;5010843;28;20041;-56
2022/12/20 08:52:19;;;;;;;14.30;13.20;;;;;;;;;;5011798;28;20096;-56
2022/12/20 08:54:44;;;;;;;15.30;14.25;;;;;;;;;;5012253;28;20470;-56
2022/12/20 08:57:10;;;;;;;15.32;14.30;;;;;;;;;;5011789;28;20558;-55
2022/12/20 08:59:35;;;;;;;14.63;13.60;;;;;;;;;;5012545;28;20097;-55
2022/12/20 09:02:00;;;;;;;16.15;14.73;;;;;;;;;;5011684;28;20034;-55
2022/12/20 09:04:26;;;;;;;15.80;14.57;;;;;;;;;;5012249;28;20037;-56
2022/12/20 09:06:51;;;;;;;17.27;16.10;;;;;;;;;;5010609;28;20034;-56
2022/12/20 09:09:16;;;;;;;16.45;15.20;;;;;;;;;;5009866;28;20088;-56
2022/12/20 09:11:42;;;;;;;14.40;13.45;;;;;;;;;;5011431;28;20088;-55
2022/12/20 09:14:08;;;;;;;16.48;15.18;;;;;;;;;;5011691;28;20125;-56
2022/12/20 09:16:33;;;;;;;15.93;14.77;;;;;;;;;;5009684;28;20033;-56
2022/12/20 09:19:00;;;;;;;15.57;14.48;;;;;;;;;;5010736;28;20059;-56
2022/12/20 09:21:26;;;;;;;15.23;14.13;;;;;;;;;;5008926;28;20415;-53
2022/12/20 09:23:54;;;;;;;15.07;14.10;;;;;;;;;;5009958;28;20104;-52
2022/12/20 09:26:20;;;;;;;15.70;14.52;;;;;;;;;;5010967;28;20136;-51
2022/12/20 09:28:46;;;;;;;14.82;13.82;;;;;;;;;;5010483;28;20064;-52
2022/12/20 09:31:17;;;;;;;18.08;16.58;;;;;;;;;;5010127;28;20041;-53
2022/12/20 09:33:43;;;;;;;18.00;16.70;;;;;;;;;;5010217;28;20061;-54
2022/12/20 09:36:17;;;;;;;16.85;15.38;;;;;;;;;;5009810;28;20037;-56
2022/12/20 09:38:43;;;;;;;16.20;15.00;;;;;;;;;;5011265;28;20038;-53
2022/12/20 09:41:26;;;;;;;16.05;14.95;;;;;;;;;;5009742;28;20454;-52
2022/12/20 09:43:51;;;;;;;15.95;14.82;;;;;;;;;;5012517;28;20551;-50
2022/12/20 09:46:17;;;;;;;15.65;14.30;;;;;;;;;;5011740;28;20113;-50
2022/12/20 09:48:43;;;;;;;15.63;14.55;;;;;;;;;;5009391;28;20138;-50
2022/12/20 09:51:08;;;;;;;16.48;15.30;;;;;;;;;;5007582;28;20037;-53
2022/12/20 09:53:43;;;;;;;15.85;14.45;;;;;;;;;;5011946;28;20081;-50
2022/12/20 09:56:21;;;;;;;15.80;14.80;;;;;;;;;;5015044;28;20117;-51
2022/12/20 09:58:57;;;;;;;14.60;13.60;;;;;;;;;;5016165;28;20034;-52
2022/12/20 10:01:26;;;;;;;15.27;14.07;;;;;;;;;;5008871;28;20402;-53
2022/12/20 10:03:53;;;;;;;16.80;15.60;;;;;;;;;;5013978;28;20045;-50
2022/12/20 10:06:41;;;;;;;19.27;17.92;;;;;;;;;;5012932;28;20104;-53
2022/12/20 10:09:18;;;;;;;20.20;15.80;;;;;;;;;;5015043;28;20061;-50
2022/12/20 10:12:02;;;;;;;15.05;14.15;;;;;;;;;;5015844;28;20033;-53
2022/12/20 10:14:44;;;;;;;15.60;14.52;;;;;;;;;;5015218;28;20040;-50
2022/12/20 10:17:16;;;;;;;15.57;14.38;;;;;;;;;;5013658;28;20041;-52
2022/12/20 10:19:59;;;;;;;16.58;15.48;;;;;;;;;;5011801;28;20443;-52
2022/12/20 10:22:32;;;;;;;14.82;13.82;;;;;;;;;;5013588;28;20038;-50
2022/12/20 10:25:10;;;;;;;14.82;13.60;;;;;;;;;;5014963;28;20045;-54
2022/12/20 10:27:40;;;;;;;17.05;15.10;;;;;;;;;;5015024;28;20044;-54
2022/12/20 10:30:14;;;;;;;15.88;14.63;;;;;;;;;;5015157;28;20152;-51
2022/12/20 10:32:44;;;;;;;14.10;13.10;;;;;;;;;;5015916;28;20577;-53
2022/12/20 10:35:10;;;;;;;14.93;13.75;;;;;;;;;;5013367;28;20108;-54
2022/12/20 10:37:35;;;;;;;13.82;12.82;;;;;;;;;;5015797;28;20788;-54
2022/12/20 10:40:01;;;;;;;14.90;13.80;;;;;;;;;;5014101;28;20091;-54
2022/12/20 10:42:32;;;;;;;15.25;14.25;;;;;;;;;;5015934;28;20499;-54
2022/12/20 10:44:57;;;;;;;16.70;15.48;;;;;;;;;;5014076;28;20112;-53
2022/12/20 10:47:33;;;;;;;14.02;12.98;;;;;;;;;;5014366;28;20235;-53
2022/12/20 10:50:28;;;;;;;12.98;12.15;;;;;;;;;;5014537;28;20052;-54
2022/12/20 10:53:08;;;;;;;14.68;13.68;;;;;;;;;;5015998;28;20487;-51
2022/12/20 10:55:36;;;;;;;15.80;14.60;;;;;;;;;;5016614;28;20065;-52
2022/12/20 10:58:16;;;;;;;14.10;13.13;;;;;;;;;;5014885;28;20490;-53
2022/12/20 11:00:43;;;;;;;14.45;13.45;;;;;;;;;;5015342;28;20033;-53
2022/12/20 11:03:14;;;;;;;14.45;13.52;;;;;;;;;;5015462;28;20037;-54
2022/12/20 11:05:52;;;;;;;15.57;14.30;;;;;;;;;;5014004;28;20145;-52
2022/12/20 11:08:20;;;;;;;15.18;14.07;;;;;;;;;;5014655;28;20140;-52
2022/12/20 11:10:46;;;;;;;15.82;14.60;;;;;;;;;;5016008;28;20037;-52
2022/12/20 11:13:25;;;;;;;16.83;15.40;;;;;;;;;;5015129;28;20026;-50
2022/12/20 11:15:55;;;;;;;16.73;15.50;;;;;;;;;;5015988;28;20057;-53
2022/12/20 11:18:43;;;;;;;16.33;15.07;;;;;;;;;;5015002;28;20030;-52
2022/12/20 11:21:24;;;;;;;16.27;15.05;;;;;;;;;;5014411;28;20041;-51
2022/12/20 11:24:09;;;;;;;17.33;16.02;;;;;;;;;;5011951;28;20037;-54
2022/12/20 11:26:41;;;;;;;15.75;14.45;;;;;;;;;;5014509;28;20052;-52
2022/12/20 11:29:22;;;;;;;17.00;15.88;;;;;;;;;;5014322;28;20112;-53
2022/12/20 11:31:55;;;;;;;16.67;15.57;;;;;;;;;;5012900;28;20037;-54
2022/12/20 11:34:23;;;;;;;13.80;12.93;;;;;;;;;;5015190;28;20053;-52
2022/12/20 11:37:10;;;;;;;14.07;13.18;;;;;;;;;;5014397;28;20068;-52
2022/12/20 11:39:53;;;;;;;15.23;14.27;;;;;;;;;;5011014;28;20242;-50
2022/12/20 11:42:24;;;;;;;15.35;14.35;;;;;;;;;;5015537;28;20033;-51
2022/12/20 11:45:01;;;;;;;17.02;15.73;;;;;;;;;;5014560;28;20034;-54
2022/12/20 11:47:26;;;;;;;26.67;24.20;;;;;;;;;;5015451;28;20041;-55
2022/12/20 11:50:41;;;;;;;25.33;23.08;;;;;;;;;;5019198;28;20041;-53
2022/12/20 11:53:47;;;;;;;23.38;21.20;;;;;;;;;;5016166;28;20037;-54
2022/12/20 11:56:17;;;;;;;44.88;34.00;;;;;;;;;;5016855;28;20083;-54
2022/12/20 11:58:50;;;;;;;30.60;27.33;;;;;;;;;;5016404;28;20193;-53
2022/12/20 12:01:19;;;;;;;37.75;33.20;;;;;;;;;;5015705;28;20572;-52
2022/12/20 12:04:09;;;;;;;41.58;32.20;;;;;;;;;;5016629;28;20663;-51
2022/12/20 12:06:41;;;;;;;80.30;53.10;;;;;;;;;;5011671;28;20053;-52
2022/12/20 12:09:24;;;;;;;46.90;36.55;;;;;;;;;;5016234;28;20045;-52
2022/12/20 12:11:57;;;;;;;31.25;27.98;;;;;;;;;;5012925;28;20105;-54
2022/12/20 12:14:54;;;;;;;34.65;31.38;;;;;;;;;;5015143;28;20130;-50
2022/12/20 12:17:37;;;;;;;29.90;26.90;;;;;;;;;;5009475;28;20133;-51
2022/12/20 12:20:27;;;;;;;24.52;21.15;;;;;;;;;;5015482;28;20065;-50
2022/12/20 12:23:01;;;;;;;15.85;14.65;;;;;;;;;;5013001;28;20052;-53
2022/12/20 12:25:27;;;;;;;13.60;12.68;;;;;;;;;;5013173;28;20037;-51
2022/12/20 12:27:52;;;;;;;15.80;14.70;;;;;;;;;;5015317;28;20087;-52
2022/12/20 12:30:18;;;;;;;15.15;14.10;;;;;;;;;;5013628;28;20030;-49
2022/12/20 12:32:54;;;;;;;15.98;14.90;;;;;;;;;;5016276;28;20109;-51
2022/12/20 12:35:38;;;;;;;14.13;13.18;;;;;;;;;;5014460;28;20026;-47
2022/12/20 12:38:35;;;;;;;13.95;12.95;;;;;;;;;;5013114;28;20045;-50
2022/12/20 12:41:06;;;;;;;13.70;12.57;;;;;;;;;;5011815;28;20038;-51
2022/12/20 12:43:45;;;;;;;13.38;12.48;;;;;;;;;;5012843;28;20073;-56
2022/12/20 12:46:15;;;;;;;12.82;11.75;;;;;;;;;;5014370;28;20056;-56
2022/12/20 12:49:07;;;;;;;15.05;13.80;;;;;;;;;;5013897;28;20030;-57
2022/12/20 12:51:39;;;;;;;13.85;12.85;;;;;;;;;;5012433;28;20045;-57
2022/12/20 12:54:22;;;;;;;13.77;12.88;;;;;;;;;;5011929;28;20136;-57
2022/12/20 12:56:49;;;;;;;14.27;13.27;;;;;;;;;;5015885;28;20685;-57
2022/12/20 12:59:23;;;;;;;14.95;13.50;;;;;;;;;;5010062;28;20048;-57
2022/12/20 13:02:04;;;;;;;16.95;15.55;;;;;;;;;;5017217;28;20033;-56
2022/12/20 13:04:54;;;;;;;15.02;13.80;;;;;;;;;;5014932;28;20045;-56
2022/12/20 13:07:44;;;;;;;15.02;13.85;;;;;;;;;;5012589;28;20065;-55
2022/12/20 13:10:17;;;;;;;14.70;13.60;;;;;;;;;;5012654;28;20044;-57
2022/12/20 13:12:49;;;;;;;16.90;15.40;;;;;;;;;;5014697;28;20060;-56
2022/12/20 13:15:21;;;;;;;14.85;13.52;;;;;;;;;;5020084;28;20039;-56
2022/12/20 13:17:46;;;;;;;13.93;13.02;;;;;;;;;;5012286;28;20052;-55
2022/12/20 13:20:19;;;;;;;16.48;15.13;;;;;;;;;;5014223;28;20042;-55
2022/12/20 13:23:10;;;;;;;16.17;15.00;;;;;;;;;;5016083;28;20041;-57
2022/12/20 13:25:44;;;;;;;17.08;15.30;;;;;;;;;;5015531;28;20095;-56
2022/12/20 13:28:22;;;;;;;15.52;14.25;;;;;;;;;;5009506;28;20527;-55
2022/12/20 13:31:08;;;;;;;16.98;15.70;;;;;;;;;;5013377;28;20041;-56
2022/12/20 13:33:50;;;;;;;17.33;15.77;;;;;;;;;;5011906;28;20108;-55
2022/12/20 13:36:15;;;;;;;14.82;13.68;;;;;;;;;;5009068;28;20443;-57
2022/12/20 13:38:47;;;;;;;15.55;14.35;;;;;;;;;;5012692;28;20064;-57
2022/12/20 13:41:29;;;;;;;14.05;13.00;;;;;;;;;;5015923;28;20062;-53
2022/12/20 13:43:58;;;;;;;14.60;13.60;;;;;;;;;;5015891;28;20399;-53
2022/12/20 13:46:39;;;;;;;15.82;14.63;;;;;;;;;;5013733;28;20080;-56
2022/12/20 13:49:09;;;;;;;15.02;13.82;;;;;;;;;;5011273;28;20471;-55
2022/12/20 13:51:34;;;;;;;16.48;15.18;;;;;;;;;;5014500;28;20112;-55
2022/12/20 13:54:06;;;;;;;15.48;14.27;;;;;;;;;;5012785;28;20531;-54
2022/12/20 13:56:43;;;;;;;15.80;14.60;;;;;;;;;;5014829;28;20030;-54
2022/12/20 13:59:29;;;;;;;16.08;14.73;;;;;;;;;;5007519;28;20069;-56
2022/12/20 14:01:58;;;;;;;18.08;14.73;;;;;;;;;;5011939;28;20030;-55
2022/12/20 14:04:26;;;;;;;14.75;13.68;;;;;;;;;;5012356;28;20052;-56
2022/12/20 14:06:55;;;;;;;17.98;16.45;;;;;;;;;;5012921;28;20045;-57
2022/12/20 14:09:33;;;;;;;15.75;14.32;;;;;;;;;;5011222;28;20033;-54
2022/12/20 14:12:16;;;;;;;14.57;13.57;;;;;;;;;;5011786;28;20352;-55
2022/12/20 14:14:43;;;;;;;15.10;13.57;;;;;;;;;;5014115;28;20032;-56
2022/12/20 14:17:28;;;;;;;16.13;14.88;;;;;;;;;;5011321;28;20033;-53
2022/12/20 14:20:13;;;;;;;14.20;13.20;;;;;;;;;;5011326;28;20048;-54
2022/12/20 14:22:44;;;;;;;18.05;16.65;;;;;;;;;;5017812;28;20037;-54
2022/12/20 14:25:15;;;;;;;15.65;14.52;;;;;;;;;;5010831;28;20112;-55
2022/12/20 14:27:41;;;;;;;18.52;16.65;;;;;;;;;;5013483;28;20037;-54
2022/12/20 14:30:31;;;;;;;16.08;14.98;;;;;;;;;;5012529;28;20046;-55
2022/12/20 14:32:57;;;;;;;16.60;15.18;;;;;;;;;;5013051;28;20060;-54
2022/12/20 14:35:24;;;;;;;16.30;15.13;;;;;;;;;;5010517;28;20029;-55
2022/12/20 14:38:18;;;;;;;16.00;14.88;;;;;;;;;;5010768;28;20083;-56
2022/12/20 14:40:44;;;;;;;16.48;15.27;;;;;;;;;;5017369;28;20036;-52
2022/12/20 14:43:25;;;;;;;15.30;14.20;;;;;;;;;;5014146;28;20041;-55